createdAt,value
2017-05-18T00:00:05.771Z,25.8
2017-05-18T00:02:05.052Z,25.8
2017-05-18T00:04:04.780Z,25.8
2017-05-18T00:06:05.640Z,25.8
2017-05-18T00:08:05.518Z,25.8
2017-05-18T00:10:05.254Z,25.8
2017-05-18T00:12:05.487Z,25.8
2017-05-18T00:14:05.354Z,25.8
2017-05-18T00:16:05.281Z,25.8
2017-05-18T00:18:07.327Z,25.8
2017-05-18T00:20:05.000Z,25.8
2017-05-18T00:22:07.286Z,25.8
2017-05-18T00:24:05.168Z,25.8
2017-05-18T00:26:04.929Z,25.8
2017-05-18T00:28:04.796Z,25.8
2017-05-18T00:30:10.593Z,25.9
2017-05-18T00:32:05.408Z,25.9
2017-05-18T00:34:07.672Z,25.9
2017-05-18T00:36:05.776Z,25.8
2017-05-18T00:38:05.466Z,25.9
2017-05-18T00:40:05.543Z,25.9
2017-05-18T00:42:07.930Z,25.9
2017-05-18T00:44:09.673Z,25.8
2017-05-18T00:46:05.368Z,25.8
2017-05-18T00:48:05.106Z,25.8
2017-05-18T00:50:04.801Z,25.8
2017-05-18T00:52:08.060Z,25.8
2017-05-18T00:54:07.330Z,25.8
2017-05-18T00:56:12.889Z,25.8
2017-05-18T00:58:05.519Z,25.8
2017-05-18T01:00:05.430Z,25.8
2017-05-18T01:02:04.609Z,25.8
2017-05-18T01:04:07.781Z,25.8
2017-05-18T01:06:13.091Z,25.7
2017-05-18T01:08:04.747Z,25.7
2017-05-18T01:10:05.499Z,25.8
2017-05-18T01:12:05.389Z,25.8
2017-05-18T01:14:05.668Z,25.8
2017-05-18T01:16:10.400Z,25.7
2017-05-18T01:18:05.466Z,25.7
2017-05-18T01:20:05.260Z,25.7
2017-05-18T01:22:05.531Z,25.7
2017-05-18T01:24:05.523Z,25.7
2017-05-18T01:26:04.820Z,25.7
2017-05-18T01:28:05.665Z,25.6
2017-05-18T01:30:05.491Z,25.6
2017-05-18T01:32:05.222Z,25.6
2017-05-18T01:34:04.924Z,25.6
2017-05-18T01:36:04.799Z,25.6
2017-05-18T01:38:05.468Z,25.6
2017-05-18T01:40:05.181Z,25.6
2017-05-18T01:42:05.652Z,25.6
2017-05-18T01:44:05.367Z,25.5
2017-05-18T01:46:05.123Z,25.5
2017-05-18T01:48:05.411Z,25.5
2017-05-18T01:50:05.142Z,25.5
2017-05-18T01:52:04.921Z,25.5
2017-05-18T01:54:04.758Z,25.5
2017-05-18T01:56:05.641Z,25.5
2017-05-18T01:58:04.990Z,25.5
2017-05-18T02:00:05.041Z,25.4
2017-05-18T02:02:04.788Z,25.4
2017-05-18T02:04:05.044Z,25.5
2017-05-18T02:06:07.413Z,25.4
2017-05-18T02:08:05.195Z,25.4
2017-05-18T02:10:07.414Z,25.3
2017-05-18T02:12:05.483Z,25.3
2017-05-18T02:14:05.167Z,25.3
2017-05-18T02:16:05.254Z,25.3
2017-05-18T02:18:05.298Z,25.3
2017-05-18T02:20:05.068Z,25.3
2017-05-18T02:22:04.774Z,25.3
2017-05-18T02:24:07.701Z,25.2
2017-05-18T02:26:05.401Z,25.3
2017-05-18T02:28:05.109Z,25.2
2017-05-18T02:30:04.979Z,25.2
2017-05-18T02:32:04.862Z,25.2
2017-05-18T02:34:13.123Z,25.2
2017-05-18T02:36:04.815Z,25.2
2017-05-18T02:38:05.640Z,25.3
2017-05-18T02:40:05.462Z,25.2
2017-05-18T02:42:05.187Z,25.2
2017-05-18T02:44:05.419Z,25.2
2017-05-18T02:46:05.139Z,25.2
2017-05-18T02:48:12.575Z,25.2
2017-05-18T02:50:05.329Z,25.1
2017-05-18T02:52:07.553Z,25.2
2017-05-18T02:54:05.349Z,25.2
2017-05-18T02:56:05.057Z,25.2
2017-05-18T02:58:04.749Z,25.1
2017-05-18T03:00:08.090Z,25.1
2017-05-18T03:02:04.817Z,25.1
2017-05-18T03:04:10.894Z,25.1
2017-05-18T03:06:05.757Z,25.1
2017-05-18T03:08:08.017Z,25.1
2017-05-18T03:10:05.380Z,25.1
2017-05-18T03:12:05.325Z,25.1
2017-05-18T03:14:05.063Z,25.1
2017-05-18T03:16:05.340Z,25
2017-05-18T03:18:05.375Z,25
2017-05-18T03:20:10.179Z,25
2017-05-18T03:22:07.433Z,25
2017-05-18T03:24:05.258Z,25
2017-05-18T03:26:04.948Z,25
2017-05-18T03:28:04.734Z,25
2017-05-18T03:30:05.513Z,25
2017-05-18T03:32:09.796Z,24.9
2017-05-18T03:34:07.614Z,24.9
2017-05-18T03:36:05.230Z,24.9
2017-05-18T03:38:05.415Z,24.9
2017-05-18T03:40:07.629Z,24.9
2017-05-18T03:42:05.937Z,24.9
2017-05-18T03:44:04.656Z,24.9
2017-05-18T03:46:07.875Z,24.9
2017-05-18T03:48:05.625Z,24.9
2017-05-18T03:50:05.369Z,24.9
2017-05-18T03:52:07.664Z,24.9
2017-05-18T03:54:05.408Z,24.9
2017-05-18T03:56:05.097Z,24.9
2017-05-18T03:58:07.454Z,24.9
2017-05-18T04:00:09.898Z,24.9
2017-05-18T04:02:07.265Z,24.9
2017-05-18T04:04:04.993Z,24.9
2017-05-18T04:06:04.723Z,24.9
2017-05-18T04:08:05.670Z,24.9
2017-05-18T04:10:10.437Z,24.9
2017-05-18T04:12:05.069Z,24.9
2017-05-18T04:14:07.338Z,24.9
2017-05-18T04:16:07.615Z,24.9
2017-05-18T04:18:05.671Z,24.9
2017-05-18T04:20:05.467Z,24.9
2017-05-18T04:22:07.289Z,24.8
2017-05-18T04:24:08.364Z,24.8
2017-05-18T04:26:05.043Z,24.9
2017-05-18T04:28:04.728Z,24.8
2017-05-18T04:30:08.092Z,24.8
2017-05-18T04:32:04.932Z,24.8
2017-05-18T04:34:07.675Z,24.7
2017-05-18T04:36:05.364Z,24.7
2017-05-18T04:38:05.064Z,24.7
2017-05-18T04:40:07.287Z,24.7
2017-05-18T04:42:07.472Z,24.7
2017-05-18T04:44:05.169Z,24.7
2017-05-18T04:46:09.928Z,24.6
2017-05-18T04:48:05.051Z,24.6
2017-05-18T04:50:07.895Z,24.6
2017-05-18T04:52:07.685Z,24.6
2017-05-18T04:54:05.531Z,24.6
2017-05-18T04:56:05.397Z,24.5
2017-05-18T04:58:05.107Z,24.5
2017-05-18T05:00:08.018Z,24.5
2017-05-18T05:02:09.870Z,24.5
2017-05-18T05:04:07.227Z,24.5
2017-05-18T05:06:04.926Z,24.5
2017-05-18T05:08:05.601Z,24.5
2017-05-18T05:10:05.303Z,24.5
2017-05-18T05:12:05.364Z,24.4
2017-05-18T05:14:05.028Z,24.4
2017-05-18T05:16:07.300Z,24.3
2017-05-18T05:18:08.047Z,24.4
2017-05-18T05:20:07.318Z,24.4
2017-05-18T05:22:05.182Z,24.4
2017-05-18T05:24:05.566Z,24.3
2017-05-18T05:26:05.293Z,24.3
2017-05-18T05:28:05.024Z,24.3
2017-05-18T05:30:04.872Z,24.3
2017-05-18T05:32:10.631Z,24.3
2017-05-18T05:34:05.394Z,24.3
2017-05-18T05:36:07.631Z,24.3
2017-05-18T05:38:04.829Z,24.3
2017-05-18T05:40:05.477Z,24.3
2017-05-18T05:42:05.319Z,24.4
2017-05-18T05:44:05.135Z,24.3
2017-05-18T05:46:04.868Z,24.3
2017-05-18T05:48:05.690Z,24.3
2017-05-18T05:50:07.182Z,24.3
2017-05-18T05:52:04.859Z,24.3
2017-05-18T05:54:10.747Z,24.3
2017-05-18T05:56:05.442Z,24.3
2017-05-18T05:58:05.170Z,24.3
2017-05-18T06:00:05.283Z,24.3
2017-05-18T06:02:04.966Z,24.3
2017-05-18T06:04:04.666Z,24.3
2017-05-18T06:06:05.431Z,24.2
2017-05-18T06:08:05.203Z,24.2
2017-05-18T06:10:05.432Z,24.2
2017-05-18T06:12:05.730Z,24.2
2017-05-18T06:14:05.458Z,24.2
2017-05-18T06:16:05.524Z,24.2
2017-05-18T06:18:05.206Z,24.2
2017-05-18T06:20:05.002Z,24.2
2017-05-18T06:22:04.727Z,24.2
2017-05-18T06:24:05.580Z,24.2
2017-05-18T06:26:07.824Z,24.2
2017-05-18T06:28:05.096Z,24.2
2017-05-18T06:30:05.196Z,24.3
2017-05-18T06:32:04.987Z,24.2
2017-05-18T06:34:05.396Z,24.2
2017-05-18T06:36:07.783Z,24.2
2017-05-18T06:38:10.551Z,24.2
2017-05-18T06:40:05.367Z,24.2
2017-05-18T06:42:10.147Z,24.2
2017-05-18T06:44:04.842Z,24.2
2017-05-18T06:46:05.603Z,24.2
2017-05-18T06:48:04.948Z,24.2
2017-05-18T06:50:07.196Z,24.2
2017-05-18T06:52:04.927Z,24.2
2017-05-18T06:54:05.794Z,24.2
2017-05-18T06:56:05.532Z,24.2
2017-05-18T06:58:05.281Z,24.2
2017-05-18T07:00:05.161Z,24.2
2017-05-18T07:02:04.886Z,24.2
2017-05-18T07:04:05.853Z,24.3
2017-05-18T07:06:05.210Z,24.3
2017-05-18T07:08:04.884Z,24.3
2017-05-18T07:10:04.639Z,24.3
2017-05-18T07:12:05.497Z,24.3
2017-05-18T07:14:10.373Z,24.2
2017-05-18T07:16:07.729Z,24.3
2017-05-18T07:18:04.672Z,24.3
2017-05-18T07:20:05.516Z,24.3
2017-05-18T07:22:07.831Z,24.2
2017-05-18T07:24:05.548Z,24.2
2017-05-18T07:26:07.822Z,24.2
2017-05-18T07:28:08.072Z,24.3
2017-05-18T07:30:05.026Z,24.3
2017-05-18T07:32:05.405Z,24.3
2017-05-18T07:34:05.113Z,24.3
2017-05-18T07:36:12.875Z,24.3
2017-05-18T07:38:05.621Z,24.3
2017-05-18T07:40:05.321Z,24.3
2017-05-18T07:42:05.599Z,24.4
2017-05-18T07:44:05.326Z,24.4
2017-05-18T07:46:07.912Z,24.5
2017-05-18T07:48:07.515Z,24.5
2017-05-18T07:50:12.773Z,24.5
2017-05-18T07:52:08.175Z,24.5
2017-05-18T07:54:04.905Z,24.5
2017-05-18T07:56:05.595Z,24.6
2017-05-18T07:58:05.310Z,24.6
2017-05-18T08:00:08.236Z,24.6
2017-05-18T08:02:04.898Z,24.6
2017-05-18T08:04:05.627Z,24.7
2017-05-18T08:06:05.517Z,24.7
2017-05-18T08:08:07.460Z,24.7
2017-05-18T08:10:05.265Z,24.7
2017-05-18T08:12:05.187Z,24.7
2017-05-18T08:14:04.872Z,24.7
2017-05-18T08:16:10.167Z,24.7
2017-05-18T08:18:05.319Z,24.7
2017-05-18T08:20:05.184Z,24.7
2017-05-18T08:22:04.912Z,24.8
2017-05-18T08:24:05.437Z,24.8
2017-05-18T08:26:05.118Z,24.8
2017-05-18T08:28:04.930Z,24.8
2017-05-18T08:30:05.244Z,24.8
2017-05-18T08:32:05.037Z,24.9
2017-05-18T08:34:04.785Z,24.9
2017-05-18T08:36:13.148Z,24.9
2017-05-18T08:38:04.879Z,24.9
2017-05-18T08:40:05.248Z,24.9
2017-05-18T08:42:05.203Z,24.9
2017-05-18T08:44:05.028Z,24.9
2017-05-18T08:46:07.243Z,24.9
2017-05-18T08:48:10.986Z,24.9
2017-05-18T08:50:04.708Z,24.9
2017-05-18T08:52:13.057Z,24.9
2017-05-18T08:54:05.313Z,24.9
2017-05-18T08:56:05.031Z,24.9
2017-05-18T08:58:04.755Z,24.9
2017-05-18T09:00:05.819Z,25
2017-05-18T09:02:05.576Z,25
2017-05-18T09:04:05.290Z,25
2017-05-18T09:06:05.614Z,25
2017-05-18T09:08:05.322Z,25
2017-05-18T09:10:05.254Z,25
2017-05-18T09:12:10.452Z,25
2017-05-18T09:14:07.433Z,25
2017-05-18T09:16:05.202Z,25
2017-05-18T09:18:08.977Z,25
2017-05-18T09:20:04.746Z,25
2017-05-18T09:22:13.035Z,25.1
2017-05-18T09:24:09.927Z,25.1
2017-05-18T09:26:05.368Z,25.1
2017-05-18T09:28:05.555Z,25.1
2017-05-18T09:30:05.236Z,25.1
2017-05-18T09:32:07.443Z,25.1
2017-05-18T09:34:07.203Z,25.1
2017-05-18T09:36:04.952Z,25.1
2017-05-18T09:38:07.581Z,25.1
2017-05-18T09:40:10.552Z,25.1
2017-05-18T09:42:05.400Z,25.1
2017-05-18T09:44:05.098Z,25.1
2017-05-18T09:46:07.284Z,25.1
2017-05-18T09:48:04.783Z,25.1
2017-05-18T09:50:05.498Z,25.1
2017-05-18T09:52:05.244Z,25.1
2017-05-18T09:54:07.275Z,25.1
2017-05-18T09:56:05.504Z,25.1
2017-05-18T09:58:04.984Z,25.1
2017-05-18T10:00:10.349Z,25.1
2017-05-18T10:02:10.130Z,25.2
2017-05-18T10:04:04.894Z,25.2
2017-05-18T10:06:05.735Z,25.2
2017-05-18T10:08:08.013Z,25.2
2017-05-18T10:10:05.230Z,25.2
2017-05-18T10:12:04.924Z,25.1
2017-05-18T10:14:04.600Z,25.2
2017-05-18T10:16:07.533Z,25.2
2017-05-18T10:18:10.682Z,25.2
2017-05-18T10:20:05.479Z,25.2
2017-05-18T10:22:05.455Z,25.2
2017-05-18T10:24:05.336Z,25.2
2017-05-18T10:26:07.585Z,25.2
2017-05-18T10:28:05.326Z,25.2
2017-05-18T10:30:05.174Z,25.2
2017-05-18T10:32:05.126Z,25.2
2017-05-18T10:34:04.822Z,25.2
2017-05-18T10:36:12.627Z,25.3
2017-05-18T10:38:05.294Z,25.2
2017-05-18T10:40:04.972Z,25.3
2017-05-18T10:42:04.927Z,25.3
2017-05-18T10:44:05.592Z,25.3
2017-05-18T10:46:05.260Z,25.2
2017-05-18T10:48:05.164Z,25.3
2017-05-18T10:50:04.992Z,25.3
2017-05-18T10:52:04.737Z,25.3
2017-05-18T10:54:08.024Z,25.3
2017-05-18T10:56:04.765Z,25.3
2017-05-18T10:58:05.560Z,25.3
2017-05-18T11:00:08.508Z,25.3
2017-05-18T11:02:07.292Z,25.3
2017-05-18T11:04:05.742Z,25.3
2017-05-18T11:06:05.471Z,25.3
2017-05-18T11:08:04.713Z,25.3
2017-05-18T11:10:04.963Z,25.3
2017-05-18T11:12:05.277Z,25.3
2017-05-18T11:14:05.424Z,25.3
2017-05-18T11:16:10.215Z,25.3
2017-05-18T11:18:05.135Z,25.3
2017-05-18T11:20:04.964Z,25.3
2017-05-18T11:22:04.697Z,25.3
2017-05-18T11:24:07.448Z,25.3
2017-05-18T11:26:05.269Z,25.3
2017-05-18T11:28:04.991Z,25.3
2017-05-18T11:30:07.337Z,25.3
2017-05-18T11:32:05.022Z,25.3
2017-05-18T11:34:05.262Z,25.3
2017-05-18T11:36:05.327Z,25.3
2017-05-18T11:38:05.051Z,25.3
2017-05-18T11:40:05.102Z,25.3
2017-05-18T11:42:07.357Z,25.2
2017-05-18T11:44:10.142Z,25.2
2017-05-18T11:46:04.806Z,25.2
2017-05-18T11:48:05.680Z,25.2
2017-05-18T11:50:07.886Z,25.2
2017-05-18T11:52:10.670Z,25.2
2017-05-18T11:54:05.738Z,25.2
2017-05-18T11:56:05.441Z,25.2
2017-05-18T11:58:04.805Z,25.2
2017-05-18T12:00:05.749Z,25.2
2017-05-18T12:02:06.614Z,25.2
2017-05-18T12:04:05.411Z,25.2
2017-05-18T12:06:05.210Z,25.2
2017-05-18T12:08:05.642Z,25.2
2017-05-18T12:10:05.324Z,25.2
2017-05-18T12:12:07.728Z,25.2
2017-05-18T12:14:05.474Z,25.2
2017-05-18T12:16:07.862Z,25.2
2017-05-18T12:18:05.038Z,25.2
2017-05-18T12:20:04.753Z,25.2
2017-05-18T12:22:05.459Z,25.2
2017-05-18T12:24:05.374Z,25.1
2017-05-18T12:26:05.044Z,25.2
2017-05-18T12:28:04.721Z,25.2
2017-05-18T12:30:05.869Z,25.1
2017-05-18T12:32:08.110Z,25.2
2017-05-18T12:34:12.342Z,25.1
2017-05-18T12:36:05.043Z,25.2
2017-05-18T12:38:04.807Z,25.1
2017-05-18T12:40:05.472Z,25.2
2017-05-18T12:42:05.192Z,25.1
2017-05-18T12:44:05.933Z,25.1
2017-05-18T12:46:04.659Z,25.1
2017-05-18T12:48:04.755Z,25.1
2017-05-18T12:50:05.525Z,25.1
2017-05-18T12:52:05.202Z,25.1
2017-05-18T12:54:07.567Z,25.1
2017-05-18T12:56:05.610Z,25.1
2017-05-18T12:58:07.844Z,25.1
2017-05-18T13:00:07.439Z,25
2017-05-18T13:02:05.170Z,25
2017-05-18T13:04:04.608Z,25
2017-05-18T13:06:05.475Z,25
2017-05-18T13:08:05.240Z,25
2017-05-18T13:10:04.972Z,25
2017-05-18T13:12:07.213Z,24.9
2017-05-18T13:14:04.926Z,24.9
2017-05-18T13:16:09.873Z,24.9
2017-05-18T13:18:12.644Z,24.8
2017-05-18T13:20:05.505Z,24.8
2017-05-18T13:22:05.214Z,24.8
2017-05-18T13:24:05.476Z,24.8
2017-05-18T13:26:07.309Z,24.7
2017-05-18T13:28:05.087Z,24.7
2017-05-18T13:30:04.821Z,24.7
2017-05-18T13:32:05.515Z,24.8
2017-05-18T13:34:05.240Z,24.8
2017-05-18T13:36:05.108Z,24.8
2017-05-18T13:38:04.951Z,24.8
2017-05-18T13:40:04.712Z,24.9
2017-05-18T13:42:05.460Z,24.9
2017-05-18T13:44:05.296Z,24.9
2017-05-18T13:46:05.066Z,24.9
2017-05-18T13:48:04.833Z,24.9
2017-05-18T13:50:05.653Z,24.9
2017-05-18T13:52:04.967Z,24.9
2017-05-18T13:54:04.854Z,24.9
2017-05-18T13:56:05.051Z,24.9
2017-05-18T13:58:07.385Z,24.9
2017-05-18T14:00:05.474Z,24.9
2017-05-18T14:02:05.230Z,24.9
2017-05-18T14:04:04.955Z,25
2017-05-18T14:06:04.811Z,25
2017-05-18T14:08:05.540Z,24.9
2017-05-18T14:10:04.747Z,24.9
2017-05-18T14:12:05.641Z,24.9
2017-05-18T14:14:05.497Z,24.9
2017-05-18T14:16:05.227Z,24.9
2017-05-18T14:18:05.181Z,24.9
2017-05-18T14:20:04.905Z,24.9
2017-05-18T14:22:04.624Z,24.9
2017-05-18T14:24:05.502Z,24.9
2017-05-18T14:26:07.836Z,24.8
2017-05-18T14:28:05.565Z,24.8
2017-05-18T14:30:05.404Z,24.8
2017-05-18T14:32:07.644Z,24.8
2017-05-18T14:34:05.349Z,24.8
2017-05-18T14:36:05.156Z,24.7
2017-05-18T14:38:04.913Z,24.7
2017-05-18T14:40:05.483Z,24.7
2017-05-18T14:42:05.399Z,24.7
2017-05-18T14:44:05.184Z,24.7
2017-05-18T14:46:04.893Z,24.7
2017-05-18T14:48:05.032Z,24.7
2017-05-18T14:50:07.415Z,24.7
2017-05-18T14:52:04.675Z,24.7
2017-05-18T14:54:05.577Z,24.7
2017-05-18T14:56:15.391Z,24.6
2017-05-18T14:58:05.219Z,24.7
2017-05-18T15:00:04.964Z,24.6
2017-05-18T15:02:07.738Z,24.5
2017-05-18T15:04:05.592Z,24.5
2017-05-18T15:06:07.515Z,24.6
2017-05-18T15:08:07.754Z,24.5
2017-05-18T15:10:04.744Z,24.5
2017-05-18T15:12:10.354Z,24.4
2017-05-18T15:14:11.369Z,24.4
2017-05-18T15:16:05.813Z,24.5
2017-05-18T15:18:05.404Z,24.4
2017-05-18T15:20:05.743Z,24.4
2017-05-18T15:22:05.199Z,24.4
2017-05-18T15:24:04.975Z,24.4
2017-05-18T15:26:06.388Z,24.4
2017-05-18T15:28:05.172Z,24.3
2017-05-18T15:30:07.359Z,24.2
2017-05-18T15:32:05.261Z,24.2
2017-05-18T15:34:04.934Z,24.2
2017-05-18T15:36:05.755Z,24.2
2017-05-18T15:38:05.910Z,24.2
2017-05-18T15:40:05.623Z,24.2
2017-05-18T15:42:05.471Z,24.1
2017-05-18T15:44:05.522Z,24.2
2017-05-18T15:46:05.333Z,24.2
2017-05-18T15:48:08.350Z,24.2
2017-05-18T15:50:05.548Z,24.1
2017-05-18T15:52:07.858Z,24.2
2017-05-18T15:54:05.233Z,24.2
2017-05-18T15:56:05.681Z,24.1
2017-05-18T15:58:05.373Z,24.2
2017-05-18T16:00:10.501Z,24.2
2017-05-18T16:02:05.225Z,24.2
2017-05-18T16:04:04.990Z,24.2
2017-05-18T16:06:04.771Z,24.2
2017-05-18T16:08:05.686Z,24.2
2017-05-18T16:10:05.378Z,24.2
2017-05-18T16:12:13.136Z,24.2
2017-05-18T16:14:06.557Z,24.3
2017-05-18T16:16:20.156Z,24.2
2017-05-18T16:18:04.884Z,24.2
2017-05-18T16:20:04.991Z,24.2
2017-05-18T16:22:05.531Z,24.1
2017-05-18T16:24:04.849Z,24.1
2017-05-18T16:26:04.754Z,24.1
2017-05-18T16:28:05.575Z,24.1
2017-05-18T16:30:07.989Z,24.1
2017-05-18T16:32:04.663Z,24.1
2017-05-18T16:34:05.520Z,24.1
2017-05-18T16:36:04.938Z,24
2017-05-18T16:38:07.209Z,24.1
2017-05-18T16:40:04.949Z,24.1
2017-05-18T16:42:05.207Z,24
2017-05-18T16:44:07.486Z,24
2017-05-18T16:46:05.165Z,24
2017-05-18T16:48:08.070Z,23.9
2017-05-18T16:50:05.395Z,24
2017-05-18T16:52:05.445Z,24
2017-05-18T16:54:05.257Z,24
2017-05-18T16:56:10.656Z,23.9
2017-05-18T16:58:05.358Z,23.9
2017-05-18T17:00:05.227Z,23.9
2017-05-18T17:02:05.573Z,23.9
2017-05-18T17:04:05.558Z,23.8
2017-05-18T17:06:05.696Z,23.9
2017-05-18T17:08:06.407Z,23.9
2017-05-18T17:10:04.711Z,24
2017-05-18T17:12:05.531Z,24
2017-05-18T17:14:05.011Z,24.1
2017-05-18T17:16:05.015Z,24.2
2017-05-18T17:18:05.053Z,24.2
2017-05-18T17:20:05.356Z,24.2
2017-05-18T17:22:10.131Z,24.3
2017-05-18T17:24:05.049Z,24.3
2017-05-18T17:26:04.837Z,24.4
2017-05-18T17:28:04.903Z,24.4
2017-05-18T17:30:04.790Z,24.4
2017-05-18T17:32:05.538Z,24.5
2017-05-18T17:34:04.788Z,24.4
2017-05-18T17:36:05.551Z,24.3
2017-05-18T17:38:05.306Z,24.3
2017-05-18T17:40:05.060Z,24.2
2017-05-18T17:42:04.809Z,24.2
2017-05-18T17:44:05.528Z,24.1
2017-05-18T17:46:04.998Z,24.1
2017-05-18T17:48:05.169Z,24.1
2017-05-18T17:50:09.958Z,24.2
2017-05-18T17:52:05.106Z,24.2
2017-05-18T17:54:04.981Z,24.3
2017-05-18T17:56:04.730Z,24.3
2017-05-18T17:58:05.477Z,24.3
2017-05-18T18:00:05.359Z,24.4
2017-05-18T18:02:05.018Z,24.4
2017-05-18T18:04:04.760Z,24.4
2017-05-18T18:06:05.572Z,24.5
2017-05-18T18:08:12.869Z,24.5
2017-05-18T18:10:04.606Z,24.5
2017-05-18T18:12:05.376Z,24.5
2017-05-18T18:14:05.077Z,24.5
2017-05-18T18:16:05.366Z,24.6
2017-05-18T18:18:04.884Z,24.6
2017-05-18T18:20:04.661Z,24.6
2017-05-18T18:22:13.021Z,24.6
2017-05-18T18:24:05.060Z,24.7
2017-05-18T18:26:04.847Z,24.6
2017-05-18T18:28:08.097Z,24.7
2017-05-18T18:30:07.991Z,24.7
2017-05-18T18:32:04.896Z,24.7
2017-05-18T18:34:10.681Z,24.7
2017-05-18T18:36:16.240Z,24.7
2017-05-18T18:38:05.470Z,24.7
2017-05-18T18:40:10.752Z,24.8
2017-05-18T18:42:08.110Z,24.8
2017-05-18T18:44:07.386Z,24.8
2017-05-18T18:46:07.862Z,24.8
2017-05-18T18:48:07.790Z,24.8
2017-05-18T18:50:05.548Z,24.8
2017-05-18T18:52:05.281Z,24.9
2017-05-18T18:54:05.121Z,24.9
2017-05-18T18:56:04.986Z,24.9
2017-05-18T18:58:04.711Z,24.9
2017-05-18T19:00:10.872Z,24.9
2017-05-18T19:02:08.131Z,24.9
2017-05-18T19:04:07.537Z,24.9
2017-05-18T19:06:05.208Z,24.9
2017-05-18T19:08:07.627Z,25
2017-05-18T19:10:07.885Z,25
2017-05-18T19:12:04.943Z,25
2017-05-18T19:14:04.634Z,25
2017-05-18T19:16:05.459Z,25.1
2017-05-18T19:18:07.982Z,25.1
2017-05-18T19:20:04.874Z,25.1
2017-05-18T19:22:05.671Z,25.1
2017-05-18T19:24:05.738Z,25.2
2017-05-18T19:26:06.127Z,25.2
2017-05-18T19:28:07.817Z,25.2
2017-05-18T19:30:04.783Z,25.2
2017-05-18T19:32:04.978Z,25.2
2017-05-18T19:34:07.180Z,25.3
2017-05-18T19:36:05.363Z,25.2
2017-05-18T19:38:05.072Z,25.3
2017-05-18T19:40:04.813Z,25.3
2017-05-18T19:42:04.850Z,25.3
2017-05-18T19:44:05.612Z,25.3
2017-05-18T19:46:04.931Z,25.3
2017-05-18T19:48:04.717Z,25.3
2017-05-18T19:50:04.670Z,25.3
2017-05-18T19:52:08.494Z,25.3
2017-05-18T19:54:07.898Z,25.3
2017-05-18T19:56:07.736Z,25.3
2017-05-18T19:58:05.076Z,25.3
2017-05-18T20:00:04.811Z,25.4
2017-05-18T20:02:05.478Z,25.4
2017-05-18T20:04:05.233Z,25.4
2017-05-18T20:06:10.211Z,25.4
2017-05-18T20:08:05.233Z,25.4
2017-05-18T20:10:07.552Z,25.4
2017-05-18T20:12:07.963Z,25.4
2017-05-18T20:14:04.745Z,25.4
2017-05-18T20:16:05.488Z,25.4
2017-05-18T20:18:05.496Z,25.4
2017-05-18T20:20:05.215Z,25.4
2017-05-18T20:22:05.565Z,25.4
2017-05-18T20:24:05.516Z,25.4
2017-05-18T20:26:05.354Z,25.4
2017-05-18T20:28:05.467Z,25.5
2017-05-18T20:30:04.803Z,25.4
2017-05-18T20:32:07.632Z,25.4
2017-05-18T20:34:05.334Z,25.4
2017-05-18T20:36:05.163Z,25.5
2017-05-18T20:38:04.988Z,25.4
2017-05-18T20:40:04.820Z,25.5
2017-05-18T20:42:05.873Z,25.5
2017-05-18T20:44:08.141Z,25.4
2017-05-18T20:46:05.119Z,25.4
2017-05-18T20:48:05.207Z,25.5
2017-05-18T20:50:07.493Z,25.5
2017-05-18T20:52:05.351Z,25.5
2017-05-18T20:54:05.165Z,25.5
2017-05-18T20:56:05.056Z,25.5
2017-05-18T20:58:07.277Z,25.5
2017-05-18T21:00:05.238Z,25.5
2017-05-18T21:02:04.967Z,25.5
2017-05-18T21:04:04.791Z,25.5
2017-05-18T21:06:10.764Z,25.5
2017-05-18T21:08:04.698Z,25.5
2017-05-18T21:10:04.749Z,25.5
2017-05-18T21:12:05.641Z,25.5
2017-05-18T21:14:05.351Z,25.5
2017-05-18T21:16:05.150Z,25.5
2017-05-18T21:18:12.918Z,25.5
2017-05-18T21:20:05.168Z,25.5
2017-05-18T21:22:07.478Z,25.5
2017-05-18T21:24:06.228Z,25.5
2017-05-18T21:26:05.131Z,25.5
2017-05-18T21:28:08.087Z,25.5
2017-05-18T21:30:04.841Z,25.5
2017-05-18T21:32:04.757Z,25.5
2017-05-18T21:34:05.497Z,25.5
2017-05-18T21:36:05.389Z,25.5
2017-05-18T21:38:12.699Z,25.5
2017-05-18T21:40:05.480Z,25.5
2017-05-18T21:42:04.944Z,25.5
2017-05-18T21:44:04.835Z,25.5
2017-05-18T21:46:10.654Z,25.5
2017-05-18T21:48:07.905Z,25.5
2017-05-18T21:50:07.205Z,25.5
2017-05-18T21:52:07.457Z,25.5
2017-05-18T21:54:07.677Z,25.5
2017-05-18T21:56:07.989Z,25.5
2017-05-18T21:58:05.231Z,25.5
2017-05-18T22:00:07.574Z,25.5
2017-05-18T22:02:05.333Z,25.5
2017-05-18T22:04:05.132Z,25.5
2017-05-18T22:06:04.876Z,25.5
2017-05-18T22:08:04.615Z,25.4
2017-05-18T22:10:05.442Z,25.4
2017-05-18T22:12:05.147Z,25.5
2017-05-18T22:14:05.235Z,25.4
2017-05-18T22:16:05.059Z,25.4
2017-05-18T22:18:05.496Z,25.4
2017-05-18T22:20:05.552Z,25.4
2017-05-18T22:22:07.838Z,25.4
2017-05-18T22:24:05.598Z,25.4
2017-05-18T22:26:05.455Z,25.3
2017-05-18T22:28:05.190Z,25.3
2017-05-18T22:30:04.870Z,25.3
2017-05-18T22:32:05.732Z,25.3
2017-05-18T22:34:04.961Z,25.3
2017-05-18T22:36:07.155Z,25.3
2017-05-18T22:38:07.410Z,25.3
2017-05-18T22:40:05.109Z,25.2
2017-05-18T22:42:04.830Z,25.2
2017-05-18T22:44:05.746Z,25.2
2017-05-18T22:46:05.575Z,25.2
2017-05-18T22:48:05.344Z,25.2
2017-05-18T22:50:10.251Z,25.1
2017-05-18T22:52:05.034Z,25.1
2017-05-18T22:54:04.786Z,25.1
2017-05-18T22:56:05.617Z,25.2
2017-05-18T22:58:12.970Z,25.1
2017-05-18T23:00:04.692Z,25.1
2017-05-18T23:02:05.541Z,25.1
2017-05-18T23:04:05.518Z,25.1
2017-05-18T23:06:07.795Z,25.1
2017-05-18T23:08:05.012Z,25.1
2017-05-18T23:10:05.209Z,25
2017-05-18T23:12:04.965Z,25
2017-05-18T23:14:04.813Z,25
2017-05-18T23:16:05.559Z,25
2017-05-18T23:18:05.493Z,25
2017-05-18T23:20:10.624Z,25
2017-05-18T23:22:04.894Z,25
2017-05-18T23:24:05.593Z,25
2017-05-18T23:26:07.978Z,24.9
2017-05-18T23:28:04.911Z,24.9
2017-05-18T23:30:15.276Z,24.9
2017-05-18T23:32:05.581Z,24.9
2017-05-18T23:34:05.326Z,24.9
2017-05-18T23:36:05.168Z,24.9
2017-05-18T23:38:05.026Z,24.9
2017-05-18T23:40:04.714Z,24.9
2017-05-18T23:42:05.406Z,24.9
2017-05-18T23:44:15.325Z,24.9
2017-05-18T23:46:05.710Z,24.9
2017-05-18T23:48:07.926Z,24.9
2017-05-18T23:50:04.813Z,24.9
2017-05-18T23:52:05.700Z,24.9
2017-05-18T23:54:05.386Z,24.8
2017-05-18T23:56:05.194Z,24.8
2017-05-18T23:58:04.924Z,24.8
